createdAt,value
2018-07-05T00:01:06.337Z,19.90
2018-07-05T00:03:46.224Z,19.80
2018-07-05T00:06:25.981Z,19.80
2018-07-05T00:09:05.574Z,19.90
2018-07-05T00:11:45.219Z,19.90
2018-07-05T00:14:24.994Z,19.90
2018-07-05T00:17:04.776Z,19.80
2018-07-05T00:19:44.585Z,19.70
2018-07-05T00:22:24.262Z,19.70
2018-07-05T00:25:03.869Z,19.80
2018-07-05T00:27:43.697Z,19.70
2018-07-05T00:30:23.494Z,19.70
2018-07-05T00:33:03.349Z,19.50
2018-07-05T00:35:43.155Z,19.40
2018-07-05T00:38:22.813Z,19.30
2018-07-05T00:41:02.616Z,19.10
2018-07-05T00:43:42.442Z,19.00
2018-07-05T00:46:22.214Z,18.90
2018-07-05T00:49:01.916Z,18.90
2018-07-05T00:51:41.476Z,19.00
2018-07-05T00:54:21.016Z,19.10
2018-07-05T00:57:00.552Z,19.20
2018-07-05T00:59:40.309Z,19.20
2018-07-05T01:02:19.981Z,19.30
2018-07-05T01:05:00.080Z,19.30
2018-07-05T01:07:39.771Z,19.40
2018-07-05T01:10:19.388Z,19.40
2018-07-05T01:12:59.394Z,19.40
2018-07-05T01:15:39.217Z,19.40
2018-07-05T01:18:18.884Z,19.40
2018-07-05T01:20:58.552Z,19.50
2018-07-05T01:23:38.065Z,19.50
2018-07-05T01:26:17.940Z,19.40
2018-07-05T01:28:57.870Z,19.30
2018-07-05T01:31:37.603Z,19.30
2018-07-05T01:34:17.254Z,19.20
2018-07-05T01:36:56.764Z,19.20
2018-07-05T01:39:36.526Z,19.20
2018-07-05T01:42:16.275Z,19.30
2018-07-05T01:44:56.113Z,19.30
2018-07-05T01:47:35.781Z,19.30
2018-07-05T01:50:15.518Z,19.30
2018-07-05T01:52:55.271Z,19.30
2018-07-05T01:55:34.990Z,19.30
2018-07-05T01:58:14.745Z,19.30
2018-07-05T02:00:54.267Z,19.20
2018-07-05T02:03:34.040Z,19.30
2018-07-05T02:06:13.500Z,19.30
2018-07-05T02:08:53.204Z,19.20
2018-07-05T02:11:32.821Z,19.30
2018-07-05T02:14:12.408Z,19.20
2018-07-05T02:16:52.326Z,19.20
2018-07-05T02:19:31.822Z,19.20
2018-07-05T02:22:11.569Z,19.20
2018-07-05T02:24:51.222Z,19.10
2018-07-05T02:27:31.208Z,19.20
2018-07-05T02:30:10.957Z,19.10
2018-07-05T02:32:50.638Z,19.10
2018-07-05T02:35:30.294Z,19.10
2018-07-05T02:38:15.527Z,19.10
2018-07-05T02:40:55.147Z,19.20
2018-07-05T02:43:34.877Z,19.20
2018-07-05T02:46:14.560Z,19.10
2018-07-05T02:48:54.299Z,19.10
2018-07-05T02:51:34.112Z,19.10
2018-07-05T02:54:13.962Z,19.10
2018-07-05T02:59:27.511Z,19.00
2018-07-05T03:02:07.292Z,19.00
2018-07-05T03:04:46.908Z,18.90
2018-07-05T03:07:26.652Z,18.90
2018-07-05T03:10:06.288Z,18.90
2018-07-05T03:12:46.081Z,18.70
2018-07-05T03:15:25.805Z,18.80
2018-07-05T03:18:05.557Z,18.80
2018-07-05T03:20:45.296Z,18.80
2018-07-05T03:23:25.082Z,18.80
2018-07-05T03:26:04.837Z,18.80
2018-07-05T03:28:44.682Z,18.80
2018-07-05T03:31:24.425Z,18.80
2018-07-05T03:34:04.257Z,18.80
2018-07-05T03:36:43.952Z,18.80
2018-07-05T03:39:23.862Z,18.80
2018-07-05T03:42:03.505Z,18.80
2018-07-05T03:44:43.145Z,18.80
2018-07-05T03:47:22.865Z,18.70
2018-07-05T03:50:02.547Z,18.70
2018-07-05T03:52:42.348Z,18.70
2018-07-05T03:55:22.029Z,18.70
2018-07-05T03:58:01.842Z,18.70
2018-07-05T04:00:41.732Z,18.60
2018-07-05T04:03:21.643Z,18.70
2018-07-05T04:06:01.231Z,18.80
2018-07-05T04:08:40.876Z,18.90
2018-07-05T04:11:20.500Z,19.00
2018-07-05T04:14:00.162Z,19.10
2018-07-05T04:16:39.788Z,19.20
2018-07-05T04:19:19.564Z,19.20
2018-07-05T04:24:32.974Z,19.30
2018-07-05T04:27:12.732Z,19.40
2018-07-05T04:29:52.669Z,19.40
2018-07-05T04:32:32.247Z,19.50
2018-07-05T04:35:11.968Z,19.60
2018-07-05T04:37:51.412Z,19.70
2018-07-05T04:40:31.030Z,19.70
2018-07-05T04:43:10.557Z,19.80
2018-07-05T04:45:50.029Z,19.90
2018-07-05T04:48:29.935Z,19.80
2018-07-05T04:51:09.720Z,19.80
2018-07-05T04:53:49.320Z,19.80
2018-07-05T04:56:29.145Z,19.80
2018-07-05T04:59:08.708Z,19.90
2018-07-05T05:01:48.516Z,19.90
2018-07-05T05:04:28.112Z,20.00
2018-07-05T05:07:07.910Z,20.00
2018-07-05T05:09:47.805Z,20.10
2018-07-05T05:12:27.691Z,20.10
2018-07-05T05:15:08.237Z,20.10
2018-07-05T05:17:47.835Z,20.20
2018-07-05T05:20:27.428Z,20.20
2018-07-05T05:23:07.259Z,20.20
2018-07-05T05:25:47.129Z,20.20
2018-07-05T05:28:26.744Z,20.20
2018-07-05T05:31:06.424Z,20.30
2018-07-05T05:33:46.081Z,20.30
2018-07-05T05:36:25.733Z,20.40
2018-07-05T05:39:05.643Z,20.40
2018-07-05T05:41:45.580Z,20.50
2018-07-05T05:44:25.363Z,20.50
2018-07-05T05:47:05.156Z,20.70
2018-07-05T05:49:44.945Z,20.50
2018-07-05T05:52:24.638Z,20.60
2018-07-05T05:55:04.365Z,20.70
2018-07-05T05:57:44.549Z,20.70
2018-07-05T06:00:24.490Z,20.70
2018-07-05T06:03:04.363Z,20.70
2018-07-05T06:05:44.051Z,20.80
2018-07-05T06:08:23.871Z,20.90
2018-07-05T06:11:03.685Z,20.90
2018-07-05T06:13:43.661Z,21.10
2018-07-05T06:16:23.181Z,21.30
2018-07-05T06:19:02.860Z,21.40
2018-07-05T06:21:42.484Z,21.50
2018-07-05T06:24:22.132Z,21.40
2018-07-05T06:27:01.755Z,21.40
2018-07-05T06:29:41.527Z,21.40
2018-07-05T06:32:21.184Z,21.30
2018-07-05T06:35:00.807Z,21.20
2018-07-05T06:37:40.472Z,21.20
2018-07-05T06:40:20.423Z,21.20
2018-07-05T06:43:00.087Z,21.10
2018-07-05T06:45:39.912Z,21.10
2018-07-05T06:48:19.852Z,21.20
2018-07-05T06:50:59.655Z,21.20
2018-07-05T06:53:39.509Z,21.10
2018-07-05T06:56:19.208Z,21.10
2018-07-05T06:58:58.888Z,21.20
2018-07-05T07:01:38.516Z,21.30
2018-07-05T07:04:18.390Z,21.40
2018-07-05T07:06:58.158Z,21.30
2018-07-05T07:09:37.673Z,21.30
2018-07-05T07:12:17.351Z,21.40
2018-07-05T07:14:57.090Z,21.50
2018-07-05T07:17:36.448Z,21.50
2018-07-05T07:20:16.068Z,21.40
2018-07-05T07:22:55.784Z,21.40
2018-07-05T07:25:35.365Z,21.40
2018-07-05T07:28:14.984Z,21.20
2018-07-05T07:30:54.641Z,21.20
2018-07-05T07:33:34.424Z,21.00
2018-07-05T07:36:14.105Z,21.10
2018-07-05T07:38:53.680Z,21.00
2018-07-05T07:41:33.543Z,21.00
2018-07-05T07:44:00.811Z,20.90
2018-07-05T07:46:28.079Z,20.90
2018-07-05T07:48:55.397Z,20.90
2018-07-05T07:51:23.565Z,20.80
2018-07-05T07:53:50.851Z,20.80
2018-07-05T07:56:18.266Z,20.90
2018-07-05T07:58:45.582Z,20.90
2018-07-05T08:01:12.889Z,21.00
2018-07-05T08:03:40.777Z,21.10
2018-07-05T08:06:08.165Z,20.90
2018-07-05T08:08:35.446Z,20.90
2018-07-05T08:11:02.768Z,21.00
2018-07-05T08:13:30.172Z,21.10
2018-07-05T08:15:57.494Z,21.10
2018-07-05T08:18:24.805Z,21.20
2018-07-05T08:20:52.086Z,21.20
2018-07-05T08:23:19.633Z,21.30
2018-07-05T08:25:46.917Z,21.40
2018-07-05T08:28:14.269Z,21.70
2018-07-05T08:30:41.544Z,21.80
2018-07-05T08:33:08.837Z,22.00
2018-07-05T08:35:36.123Z,22.10
2018-07-05T08:38:03.429Z,22.20
2018-07-05T08:40:30.707Z,22.30
2018-07-05T08:42:57.981Z,22.40
2018-07-05T08:45:25.271Z,22.70
2018-07-05T08:47:52.557Z,22.90
2018-07-05T08:50:19.875Z,22.80
2018-07-05T08:52:47.208Z,23.00
2018-07-05T08:55:14.541Z,23.10
2018-07-05T08:57:41.808Z,23.20
2018-07-05T09:00:09.127Z,23.20
2018-07-05T09:02:36.430Z,23.30
2018-07-05T09:05:03.710Z,23.40
2018-07-05T09:07:30.964Z,23.30
2018-07-05T09:09:58.229Z,23.20
2018-07-05T09:12:25.582Z,23.30
2018-07-05T09:14:52.847Z,23.20
2018-07-05T09:17:20.229Z,23.10
2018-07-05T09:19:47.506Z,23.10
2018-07-05T09:22:14.768Z,23.10
2018-07-05T09:24:42.100Z,23.10
2018-07-05T09:27:09.421Z,23.10
2018-07-05T09:29:36.663Z,23.20
2018-07-05T09:32:04.004Z,23.00
2018-07-05T09:34:31.463Z,22.70
2018-07-05T09:36:58.777Z,22.60
2018-07-05T09:39:26.098Z,22.50
2018-07-05T09:41:53.396Z,22.40
2018-07-05T09:44:20.808Z,22.30
2018-07-05T09:46:48.114Z,22.30
2018-07-05T09:49:15.420Z,22.10
2018-07-05T09:51:42.713Z,21.80
2018-07-05T09:54:10.016Z,21.70
2018-07-05T09:56:37.323Z,21.90
2018-07-05T09:59:04.610Z,21.80
2018-07-05T10:01:31.911Z,21.80
2018-07-05T10:03:59.201Z,21.80
2018-07-05T10:06:26.503Z,21.80
2018-07-05T10:08:54.459Z,21.80
2018-07-05T10:11:21.736Z,21.90
2018-07-05T10:13:49.456Z,21.90
2018-07-05T10:16:16.346Z,21.90
2018-07-05T10:18:43.653Z,21.90
2018-07-05T10:21:10.937Z,21.80
2018-07-05T10:23:38.210Z,21.80
2018-07-05T10:26:05.528Z,21.60
2018-07-05T10:28:33.378Z,21.70
2018-07-05T10:31:13.364Z,21.70
2018-07-05T10:33:46.558Z,21.90
2018-07-05T10:36:13.832Z,22.00
2018-07-05T10:38:41.138Z,22.00
2018-07-05T10:41:20.917Z,22.00
2018-07-05T10:44:00.765Z,21.80
2018-07-05T10:46:40.550Z,21.80
2018-07-05T10:49:20.171Z,21.70
2018-07-05T10:51:59.760Z,21.70
2018-07-05T10:54:39.253Z,21.60
2018-07-05T10:57:18.757Z,21.60
2018-07-05T10:59:58.576Z,21.70
2018-07-05T11:02:38.311Z,21.60
2018-07-05T11:05:18.096Z,21.70
2018-07-05T11:07:57.894Z,21.70
2018-07-05T11:10:37.800Z,21.70
2018-07-05T11:13:17.755Z,21.70
2018-07-05T11:15:57.625Z,21.70
2018-07-05T11:18:37.275Z,21.60
2018-07-05T11:21:17.069Z,21.60
2018-07-05T11:23:56.897Z,21.50
2018-07-05T11:26:36.669Z,21.60
2018-07-05T11:29:16.441Z,21.60
2018-07-05T11:31:56.045Z,21.60
2018-07-05T11:34:35.764Z,21.70
2018-07-05T11:37:15.525Z,21.60
2018-07-05T11:39:55.207Z,21.50
2018-07-05T11:42:34.924Z,21.50
2018-07-05T11:45:14.651Z,21.60
2018-07-05T11:47:54.387Z,21.60
2018-07-05T11:50:33.918Z,21.60
2018-07-05T11:53:13.555Z,21.90
2018-07-05T11:55:53.326Z,22.10
2018-07-05T11:58:33.214Z,22.20
2018-07-05T12:01:12.891Z,22.20
2018-07-05T12:03:52.685Z,22.10
2018-07-05T12:06:32.291Z,22.20
2018-07-05T12:09:11.886Z,22.50
2018-07-05T12:11:51.602Z,22.40
2018-07-05T12:17:05.021Z,22.70
2018-07-05T12:19:44.901Z,22.70
2018-07-05T12:22:24.670Z,22.50
2018-07-05T12:25:04.449Z,22.30
2018-07-05T12:27:44.252Z,22.40
2018-07-05T12:30:24.035Z,22.40
2018-07-05T12:33:03.754Z,22.50
2018-07-05T12:35:43.371Z,22.40
2018-07-05T12:38:23.260Z,22.50
2018-07-05T12:41:03.017Z,22.70
2018-07-05T12:43:42.537Z,22.60
2018-07-05T12:46:22.325Z,22.60
2018-07-05T12:49:02.026Z,22.70
2018-07-05T12:51:41.850Z,22.80
2018-07-05T12:54:21.447Z,22.90
2018-07-05T12:57:01.324Z,22.80
2018-07-05T12:59:41.023Z,22.70
2018-07-05T13:02:20.883Z,22.80
2018-07-05T13:05:00.527Z,22.90
2018-07-05T13:07:40.077Z,22.90
2018-07-05T13:10:19.765Z,22.80
2018-07-05T13:12:59.573Z,23.00
2018-07-05T13:15:39.202Z,23.00
2018-07-05T13:18:19.025Z,23.10
2018-07-05T13:20:58.831Z,23.00
2018-07-05T13:23:38.628Z,22.90
2018-07-05T13:26:18.206Z,22.90
2018-07-05T13:28:57.982Z,22.90
2018-07-05T13:31:37.648Z,23.10
2018-07-05T13:34:17.251Z,23.30
2018-07-05T13:36:57.031Z,23.30
2018-07-05T13:39:36.935Z,23.30
2018-07-05T13:42:16.486Z,23.30
2018-07-05T13:44:56.167Z,23.20
2018-07-05T13:47:35.833Z,23.30
2018-07-05T13:50:15.373Z,23.40
2018-07-05T13:52:55.064Z,23.40
2018-07-05T13:55:35.211Z,23.40
2018-07-05T13:58:14.897Z,23.50
2018-07-05T14:00:54.664Z,23.70
2018-07-05T14:03:34.342Z,23.60
2018-07-05T14:06:13.945Z,23.60
2018-07-05T14:08:53.972Z,23.50
2018-07-05T14:11:33.665Z,23.70
2018-07-05T14:14:13.411Z,23.70
2018-07-05T14:16:53.145Z,23.60
2018-07-05T14:19:32.965Z,23.80
2018-07-05T14:22:12.664Z,23.70
2018-07-05T14:24:52.380Z,23.70
2018-07-05T14:27:32.510Z,23.80
2018-07-05T14:30:12.107Z,23.80
2018-07-05T14:32:51.757Z,23.60
2018-07-05T14:35:31.806Z,23.30
2018-07-05T14:38:11.526Z,23.50
2018-07-05T14:40:51.366Z,23.80
2018-07-05T14:43:30.941Z,23.90
2018-07-05T14:46:10.723Z,24.10
2018-07-05T14:48:50.504Z,24.10
2018-07-05T14:51:30.282Z,23.50
2018-07-05T14:54:09.988Z,23.60
2018-07-05T14:56:49.750Z,23.60
2018-07-05T14:59:29.413Z,23.60
2018-07-05T15:02:09.249Z,23.70
2018-07-05T15:04:48.888Z,23.80
2018-07-05T15:07:28.664Z,23.50
2018-07-05T15:10:08.288Z,23.20
2018-07-05T15:12:47.903Z,23.20
2018-07-05T15:18:26.384Z,23.20
2018-07-05T15:21:05.916Z,23.20
2018-07-05T15:23:45.589Z,23.10
2018-07-05T15:26:25.530Z,23.30
2018-07-05T15:29:05.333Z,23.40
2018-07-05T15:31:44.977Z,23.30
2018-07-05T15:34:24.512Z,23.30
2018-07-05T15:37:04.116Z,23.30
2018-07-05T15:39:43.891Z,23.40
2018-07-05T15:42:23.592Z,23.40
2018-07-05T15:45:03.226Z,23.50
2018-07-05T15:47:42.950Z,23.60
2018-07-05T15:50:22.629Z,23.50
2018-07-05T15:53:02.252Z,23.50
2018-07-05T15:55:42.051Z,23.40
2018-07-05T15:58:21.780Z,23.50
2018-07-05T16:01:01.401Z,23.30
2018-07-05T16:03:41.452Z,23.30
2018-07-05T16:06:21.113Z,23.50
2018-07-05T16:09:00.830Z,23.30
2018-07-05T16:11:40.606Z,23.20
2018-07-05T16:14:20.293Z,23.20
2018-07-05T16:17:00.071Z,23.20
2018-07-05T16:19:39.901Z,23.10
2018-07-05T16:22:19.578Z,23.10
2018-07-05T16:24:59.263Z,23.20
2018-07-05T16:27:38.896Z,23.30
2018-07-05T16:30:18.948Z,23.20
2018-07-05T16:32:59.056Z,23.30
2018-07-05T16:35:39.332Z,23.30
2018-07-05T16:38:19.460Z,23.20
2018-07-05T16:40:59.208Z,23.40
2018-07-05T16:46:12.604Z,23.20
2018-07-05T16:48:52.321Z,23.30
2018-07-05T16:51:32.284Z,23.10
2018-07-05T16:54:12.426Z,23.10
2018-07-05T16:56:52.675Z,23.10
2018-07-05T16:59:32.859Z,23.00
2018-07-05T17:02:12.727Z,23.10
2018-07-05T17:04:52.881Z,23.00
2018-07-05T17:07:32.920Z,22.80
2018-07-05T17:10:12.853Z,22.90
2018-07-05T17:12:52.671Z,22.90
2018-07-05T17:15:32.290Z,23.00
2018-07-05T17:18:12.249Z,23.00
2018-07-05T17:20:52.060Z,23.00
2018-07-05T17:23:31.863Z,22.90
2018-07-05T17:26:11.566Z,22.70
2018-07-05T17:28:51.328Z,22.60
2018-07-05T17:34:04.883Z,22.50
2018-07-05T17:36:44.581Z,22.60
2018-07-05T17:39:24.274Z,22.60
2018-07-05T17:44:37.635Z,22.50
2018-07-05T17:47:17.425Z,22.50
2018-07-05T17:52:51.377Z,22.40
2018-07-05T17:55:31.201Z,22.40
2018-07-05T17:58:10.836Z,22.30
2018-07-05T18:00:50.514Z,22.30
2018-07-05T18:03:30.434Z,22.30
2018-07-05T18:06:10.583Z,22.30
2018-07-05T18:08:50.207Z,22.20
2018-07-05T18:11:29.895Z,22.20
2018-07-05T18:14:09.487Z,22.00
2018-07-05T18:16:49.336Z,22.00
2018-07-05T18:19:29.101Z,22.10
2018-07-05T18:22:09.316Z,22.10
2018-07-05T18:24:49.169Z,22.10
2018-07-05T18:27:28.804Z,21.90
2018-07-05T18:30:08.873Z,21.80
2018-07-05T18:32:49.603Z,21.60
2018-07-05T18:35:29.569Z,21.70
2018-07-05T18:38:09.357Z,21.60
2018-07-05T18:40:49.294Z,21.50
2018-07-05T18:43:29.359Z,21.50
2018-07-05T18:46:09.297Z,21.40
2018-07-05T18:48:48.893Z,21.50
2018-07-05T18:51:28.605Z,21.40
2018-07-05T18:54:08.615Z,21.40
2018-07-05T18:56:49.118Z,21.40
2018-07-05T18:59:28.964Z,21.20
2018-07-05T19:02:08.724Z,21.20
2018-07-05T19:04:48.320Z,21.10
2018-07-05T19:07:28.588Z,21.10
2018-07-05T19:10:08.504Z,21.00
2018-07-05T19:12:48.640Z,21.00
2018-07-05T19:15:28.706Z,20.90
2018-07-05T19:18:08.883Z,20.80
2018-07-05T19:20:48.978Z,20.90
2018-07-05T19:23:29.172Z,20.80
2018-07-05T19:26:09.225Z,20.80
2018-07-05T19:28:49.285Z,20.70
2018-07-05T19:31:29.249Z,20.60
2018-07-05T19:34:09.202Z,20.60
2018-07-05T19:36:49.036Z,20.70
2018-07-05T19:39:28.666Z,20.70
2018-07-05T19:42:08.580Z,20.60
2018-07-05T19:44:48.405Z,20.60
2018-07-05T19:47:28.384Z,20.60
2018-07-05T19:50:08.081Z,20.60
2018-07-05T19:52:47.847Z,20.60
2018-07-05T19:55:27.473Z,20.60
2018-07-05T19:58:07.381Z,20.60
2018-07-05T20:00:47.258Z,20.60
2018-07-05T20:03:26.804Z,20.60
2018-07-05T20:06:06.542Z,20.50
2018-07-05T20:08:46.289Z,20.50
2018-07-05T20:11:26.276Z,20.50
2018-07-05T20:14:05.979Z,20.50
2018-07-05T20:16:46.365Z,20.50
2018-07-05T20:19:26.619Z,20.50
2018-07-05T20:22:10.771Z,20.50
2018-07-05T20:24:50.629Z,20.50
2018-07-05T20:27:30.342Z,20.50
2018-07-05T20:30:10.000Z,20.50
2018-07-05T20:32:49.493Z,20.50
2018-07-05T20:35:29.383Z,20.50
2018-07-05T20:38:09.103Z,20.50
2018-07-05T20:40:49.152Z,20.40
2018-07-05T20:43:29.002Z,20.40
2018-07-05T20:46:08.990Z,20.40
2018-07-05T20:48:48.830Z,20.30
2018-07-05T20:51:28.516Z,20.30
2018-07-05T20:54:08.461Z,20.30
2018-07-05T20:56:48.559Z,20.30
2018-07-05T20:59:28.517Z,20.30
2018-07-05T21:02:08.379Z,20.20
2018-07-05T21:04:48.426Z,20.20
2018-07-05T21:07:28.540Z,20.30
2018-07-05T21:10:08.511Z,20.20
2018-07-05T21:12:48.222Z,20.20
2018-07-05T21:15:28.211Z,20.20
2018-07-05T21:18:08.031Z,20.10
2018-07-05T21:20:47.915Z,20.10
2018-07-05T21:23:28.000Z,20.00
2018-07-05T21:26:07.777Z,20.10
2018-07-05T21:28:47.521Z,20.00
2018-07-05T21:31:27.165Z,20.00
2018-07-05T21:34:06.813Z,20.00
2018-07-05T21:36:46.740Z,20.00
2018-07-05T21:39:26.760Z,20.00
2018-07-05T21:42:06.341Z,19.90
2018-07-05T21:44:45.900Z,19.90
2018-07-05T21:47:25.509Z,19.90
2018-07-05T21:50:05.323Z,19.90
2018-07-05T21:52:45.061Z,19.90
2018-07-05T21:55:24.759Z,19.90
2018-07-05T21:58:04.445Z,19.80
2018-07-05T22:00:44.127Z,19.80
2018-07-05T22:03:23.721Z,19.80
2018-07-05T22:06:04.421Z,19.80
2018-07-05T22:08:44.415Z,19.80
2018-07-05T22:11:23.986Z,19.80
2018-07-05T22:14:03.669Z,19.90
2018-07-05T22:16:48.862Z,19.80
2018-07-05T22:19:33.945Z,19.80
2018-07-05T22:22:19.011Z,19.80
2018-07-05T22:25:04.319Z,19.80
2018-07-05T22:27:49.414Z,19.80
2018-07-05T22:30:34.494Z,19.80
2018-07-05T22:33:14.219Z,19.70
2018-07-05T22:35:53.895Z,19.70
2018-07-05T22:38:33.704Z,19.70
2018-07-05T22:41:13.383Z,19.70
2018-07-05T22:43:53.176Z,19.70
2018-07-05T22:46:32.804Z,19.70
2018-07-05T22:49:12.758Z,19.70
2018-07-05T22:51:52.657Z,19.80
2018-07-05T22:54:32.427Z,19.70
2018-07-05T22:57:12.223Z,19.70
2018-07-05T22:59:51.989Z,19.60
2018-07-05T23:02:31.753Z,19.60
2018-07-05T23:05:11.326Z,19.60
2018-07-05T23:07:51.058Z,19.60
2018-07-05T23:10:30.764Z,19.60
2018-07-05T23:13:10.647Z,19.50
2018-07-05T23:15:50.301Z,19.50
2018-07-05T23:18:30.048Z,19.50
2018-07-05T23:21:09.665Z,19.50
2018-07-05T23:23:49.260Z,19.50
2018-07-05T23:26:29.121Z,19.40
2018-07-05T23:29:08.644Z,19.40
2018-07-05T23:31:48.251Z,19.40
2018-07-05T23:34:27.898Z,19.50
2018-07-05T23:37:07.792Z,19.40
2018-07-05T23:39:47.732Z,19.40
2018-07-05T23:42:27.226Z,19.40
2018-07-05T23:45:07.192Z,19.40
2018-07-05T23:47:46.831Z,19.40
2018-07-05T23:50:26.467Z,19.40
2018-07-05T23:53:06.221Z,19.40
2018-07-05T23:55:45.734Z,19.40
2018-07-05T23:58:25.327Z,19.40
